Time;durP1;ratioP1;P1;durP2;ratioP2;P2;SDS_P1;SDS_P2;PMS_P1;PMS_P2;Temp;Humidity;BMP_temperature;BMP_pressure;BME280_temperature;BME280_humidity;BME280_pressure;Samples;Min_cycle;Max_cycle;Signal;HPM_P1;HPM_P2
2021/11/07 00:04:24;;;;;;;27.52;8.82;;;13.60;99.90;;;13.99;93.00;101586.75;4806106;29;20069;-69
2021/11/07 00:06:56;;;;;;;28.17;9.50;;;13.60;99.90;;;14.03;92.44;101573.38;4807840;29;20047;-71
2021/11/07 00:09:29;;;;;;;32.85;9.32;;;13.70;99.90;;;14.02;92.45;101568.97;4808318;29;20058;-71
2021/11/07 00:12:00;;;;;;;28.33;9.07;;;13.70;99.90;;;13.99;92.61;101569.00;4807812;29;20051;-69
2021/11/07 00:14:29;;;;;;;32.95;9.45;;;13.70;99.90;;;13.97;92.59;101568.13;4806595;29;20128;-69
2021/11/07 00:16:58;;;;;;;31.58;9.30;;;13.70;99.90;;;13.95;92.67;101580.56;4807114;29;20053;-69
2021/11/07 00:19:32;;;;;;;36.53;9.63;;;13.70;99.90;;;13.99;92.87;101586.75;4807518;29;20054;-69
2021/11/07 00:22:07;;;;;;;30.17;8.88;;;13.70;99.90;;;13.95;92.58;101583.22;4806637;29;20051;-64
2021/11/07 00:24:41;;;;;;;31.80;9.23;;;13.70;99.90;;;13.86;92.67;101542.50;4807760;29;20077;-70
2021/11/07 00:27:20;;;;;;;31.63;8.90;;;13.80;99.90;;;14.09;92.13;101572.47;4807482;29;20042;-69
2021/11/07 00:29:56;;;;;;;40.15;9.95;;;13.90;99.90;;;14.21;92.22;101586.56;4807447;29;20451;-69
2021/11/07 00:32:31;;;;;;;32.20;9.68;;;13.90;99.90;;;14.27;91.64;101569.66;4807445;29;20055;-69
2021/11/07 00:37:47;;;;;;;27.25;8.95;;;14.00;99.90;;;13.66;90.93;101448.69;4807340;29;20101;-69
2021/11/07 00:40:23;;;;;;;20.58;8.45;;;14.10;99.90;;;14.21;91.33;101551.06;4807202;29;20108;-69
2021/11/07 00:42:56;;;;;;;21.95;9.20;;;14.00;99.90;;;14.24;91.36;101559.94;4806226;29;20107;-69
2021/11/07 00:45:34;;;;;;;36.20;8.98;;;14.00;99.90;;;14.26;91.18;101559.91;4807170;29;20092;-69
2021/11/07 00:48:17;;;;;;;26.05;9.35;;;14.10;99.90;;;14.39;91.05;101573.16;4807143;29;20058;-69
2021/11/07 00:50:58;;;;;;;37.10;9.80;;;14.10;99.90;;;14.43;90.52;101558.03;4807349;29;20504;-69
2021/11/07 00:53:48;;;;;;;28.88;10.05;;;14.20;99.90;;;14.45;90.51;101553.56;4806998;29;20387;-69
2021/11/07 00:56:23;;;;;;;30.92;9.70;;;14.20;99.90;;;14.52;90.21;101546.41;4810411;29;20521;-69
2021/11/07 00:59:04;;;;;;;33.40;10.35;;;14.30;99.90;;;14.50;90.10;101538.41;4825148;29;20473;-69
2021/11/07 01:01:38;;;;;;;23.23;8.80;;;14.30;99.90;;;14.55;89.99;101544.59;4825047;29;20046;-69
2021/11/07 01:04:13;;;;;;;30.45;10.52;;;14.30;99.90;;;14.34;90.02;101505.75;4808812;29;20050;-69
2021/11/07 01:06:43;;;;;;;28.77;10.75;;;14.30;99.90;;;14.59;90.02;101546.34;4825559;29;20489;-69
2021/11/07 01:09:14;;;;;;;30.50;9.90;;;14.30;99.90;;;14.58;90.13;101528.59;4823734;29;20058;-69
2021/11/07 01:11:44;;;;;;;25.45;10.18;;;14.40;99.90;;;14.64;90.35;101536.50;4825173;29;20142;-69
2021/11/07 01:14:14;;;;;;;31.08;10.23;;;14.40;99.90;;;14.66;89.90;101523.19;4825137;29;20458;-69
2021/11/07 01:16:43;;;;;;;33.38;10.25;;;14.40;99.90;;;14.67;89.91;101540.94;4825065;29;20071;-69
2021/11/07 01:19:13;;;;;;;32.72;10.60;;;14.40;99.90;;;14.60;90.14;101550.75;4825075;29;20497;-69
2021/11/07 01:21:43;;;;;;;32.58;11.10;;;14.40;99.90;;;14.63;90.21;101529.44;4824980;29;20078;-69
2021/11/07 01:24:15;;;;;;;31.50;10.07;;;14.40;99.90;;;14.54;90.45;101533.97;4823844;29;20050;-69
2021/11/07 01:26:48;;;;;;;29.83;10.82;;;14.30;99.90;;;14.59;90.81;101541.00;4824658;29;20043;-69
2021/11/07 01:29:20;;;;;;;30.30;11.55;;;14.30;99.90;;;14.60;90.88;101545.44;4808511;29;20054;-69
2021/11/07 01:31:50;;;;;;;27.60;11.25;;;14.40;99.90;;;14.64;90.68;101523.19;4824692;29;20054;-69
2021/11/07 01:34:24;;;;;;;36.97;12.00;;;14.50;99.90;;;14.63;90.69;101534.75;4824911;29;20050;-69
2021/11/07 01:36:58;;;;;;;27.20;11.32;;;14.50;99.90;;;14.70;90.53;101531.13;4808354;29;20059;-69
2021/11/07 01:39:37;;;;;;;30.02;10.68;;;14.50;99.90;;;14.79;90.26;101540.81;4824872;29;20042;-69
2021/11/07 01:42:11;;;;;;;27.50;10.38;;;14.50;99.90;;;14.72;90.03;101528.44;4824566;29;20390;-69
2021/11/07 01:44:46;;;;;;;39.28;13.35;;;14.50;99.90;;;14.69;90.54;101541.81;4824535;29;20051;-69
2021/11/07 01:47:16;;;;;;;26.92;11.73;;;14.60;99.90;;;14.72;90.64;101533.75;4824564;29;20043;-69
2021/11/07 01:49:45;;;;;;;29.17;11.50;;;14.50;99.90;;;14.75;90.45;101531.09;4808915;29;20517;-69
2021/11/07 01:52:15;;;;;;;28.70;10.68;;;14.50;99.90;;;14.74;90.31;101524.88;4824640;29;20409;-69
2021/11/07 01:54:50;;;;;;;31.52;11.68;;;14.50;99.90;;;14.73;90.30;101504.44;4824346;29;20042;-69
2021/11/07 01:57:25;;;;;;;30.48;11.43;;;14.50;99.90;;;14.76;90.20;101520.41;4824787;29;20078;-70
2021/11/07 02:00:02;;;;;;;25.13;11.57;;;14.50;99.90;;;14.71;90.19;101516.91;4824585;29;20085;-70
2021/11/07 02:02:34;;;;;;;31.58;10.93;;;14.50;99.90;;;14.69;90.15;101521.34;4824611;29;20054;-69
2021/11/07 02:05:05;;;;;;;27.63;10.45;;;14.50;99.90;;;14.51;90.07;101489.63;4824308;29;20054;-69
2021/11/07 02:07:34;;;;;;;31.02;11.63;;;14.50;99.90;;;14.73;90.07;101514.25;4824601;29;20079;-69
2021/11/07 02:10:07;;;;;;;34.17;11.68;;;14.50;99.90;;;14.60;90.43;101483.28;4807785;29;20107;-69
2021/11/07 02:12:37;;;;;;;31.60;11.23;;;14.40;99.90;;;14.58;90.54;101479.78;4824108;29;20511;-69
2021/11/07 02:15:07;;;;;;;31.08;11.75;;;14.40;99.90;;;14.70;90.33;101487.63;4824183;29;20501;-69
2021/11/07 02:17:36;;;;;;;30.70;11.30;;;14.50;99.90;;;14.77;89.86;101484.88;4823886;29;20050;-68
2021/11/07 02:20:09;;;;;;;32.75;10.55;;;14.50;99.90;;;14.75;89.79;101484.00;4823979;29;20039;-68
2021/11/07 02:22:42;;;;;;;27.70;10.75;;;14.50;99.90;;;14.79;89.89;101479.56;4824027;29;20493;-68
2021/11/07 02:25:11;;;;;;;30.88;11.75;;;14.50;99.90;;;14.61;89.81;101430.06;4824069;29;20058;-68
2021/11/07 02:27:40;;;;;;;32.17;11.63;;;14.60;99.90;;;14.84;89.25;101489.25;4823882;29;20077;-68
2021/11/07 02:30:12;;;;;;;25.00;11.60;;;14.60;99.90;;;14.52;89.47;101448.78;4823040;29;20050;-68
2021/11/07 02:32:43;;;;;;;27.35;10.60;;;14.60;99.90;;;14.37;90.04;101467.56;4824238;29;20038;-68
2021/11/07 02:35:13;;;;;;;32.95;10.82;;;14.40;99.90;;;14.67;89.74;101488.56;4823881;29;20058;-68
2021/11/07 02:37:43;;;;;;;25.27;10.45;;;14.50;99.90;;;14.68;89.42;101461.03;4823851;29;20067;-68
2021/11/07 02:40:13;;;;;;;22.17;9.75;;;14.40;99.90;;;14.66;88.71;101453.94;4827602;29;20450;-68
2021/11/07 02:42:44;;;;;;;22.95;10.02;;;14.50;99.90;;;14.63;88.78;101449.56;4827253;29;20065;-68
2021/11/07 02:45:14;;;;;;;22.90;8.70;;;14.40;99.90;;;14.61;88.91;101450.47;4827315;29;20055;-68
2021/11/07 02:47:43;;;;;;;21.85;9.07;;;14.40;99.90;;;14.40;88.61;101425.84;4811164;29;20088;-68
2021/11/07 02:50:12;;;;;;;24.13;9.35;;;14.30;99.90;;;14.62;88.36;101458.44;4826121;29;20061;-68
2021/11/07 02:52:43;;;;;;;24.13;9.18;;;14.40;99.90;;;14.58;88.56;101458.47;4826990;29;20110;-68
2021/11/07 02:55:12;;;;;;;;;;;14.40;99.90;;;14.57;88.53;101462.94;4827755;29;20050;-68
2021/11/07 02:57:45;;;;;;;26.75;8.90;;;14.40;99.90;;;14.23;89.19;101448.16;4827069;29;20012;-68
2021/11/07 03:00:17;;;;;;;29.38;8.70;;;14.20;99.90;;;14.06;88.05;101455.44;4826944;29;20050;-68
2021/11/07 03:02:45;;;;;;;22.88;7.22;;;13.90;99.90;;;13.91;83.00;101468.88;4827118;29;20092;-68
2021/11/07 03:05:14;;;;;;;23.73;7.38;;;13.80;99.90;;;13.91;80.89;101476.84;4810542;29;20053;-68
2021/11/07 03:07:45;;;;;;;25.33;7.05;;;13.70;99.90;;;13.82;78.72;101468.97;4826788;29;20103;-68
2021/11/07 03:10:15;;;;;;;20.75;6.88;;;13.70;99.90;;;13.79;78.07;101487.59;4827096;29;20051;-68
2021/11/07 03:12:43;;;;;;;18.27;6.50;;;13.60;99.90;;;13.67;76.41;101491.22;4826976;29;20133;-68
2021/11/07 03:15:13;;;;;;;25.40;6.78;;;13.50;99.90;;;13.67;75.36;101487.66;4826618;29;20051;-68
2021/11/07 03:17:42;;;;;;;19.08;5.90;;;13.50;99.90;;;13.57;73.81;101492.16;4826652;29;20450;-68
2021/11/07 03:20:12;;;;;;;17.65;6.20;;;13.40;99.90;;;13.62;73.40;101471.75;4826576;29;20081;-68
2021/11/07 03:22:40;;;;;;;23.45;6.43;;;13.40;99.90;;;13.60;72.92;101492.16;4825431;29;20528;-68
2021/11/07 03:25:10;;;;;;;23.98;6.50;;;13.40;99.90;;;13.40;72.25;101457.75;4826768;29;20073;-68
2021/11/07 03:27:41;;;;;;;22.73;6.38;;;13.40;99.90;;;13.08;71.84;101390.66;4826745;29;20475;-68
2021/11/07 03:30:24;;;;;;;24.95;7.05;;;13.40;99.90;;;13.58;71.57;101467.38;4826520;29;20172;-68
2021/11/07 03:32:55;;;;;;;24.83;7.07;;;13.40;99.90;;;13.58;70.98;101484.19;4826470;29;20050;-68
2021/11/07 03:35:24;;;;;;;23.73;7.40;;;13.40;99.90;;;13.65;70.30;101493.00;4826711;29;20050;-68
2021/11/07 03:37:56;;;;;;;24.65;7.03;;;13.50;99.90;;;13.71;69.79;101473.47;4826750;29;20050;-68
2021/11/07 03:40:28;;;;;;;19.30;6.07;;;13.50;99.90;;;13.62;69.37;101473.53;4826885;29;20051;-68
2021/11/07 03:42:57;;;;;;;21.92;6.82;;;13.40;99.90;;;13.64;69.51;101485.03;4826263;29;20072;-68
2021/11/07 03:45:26;;;;;;;26.27;7.30;;;13.40;99.90;;;13.63;69.51;101460.22;4826177;29;20570;-68
2021/11/07 03:48:01;;;;;;;23.88;6.20;;;13.50;99.90;;;13.65;69.84;101471.72;4825233;29;20058;-68
2021/11/07 03:50:30;;;;;;;21.45;6.43;;;13.50;99.90;;;13.50;70.48;101443.50;4825118;29;20401;-68
2021/11/07 03:52:59;;;;;;;26.23;6.40;;;13.40;99.90;;;13.65;70.31;101465.53;4826401;29;20042;-68
2021/11/07 03:55:29;;;;;;;26.27;7.53;;;13.40;99.90;;;13.52;70.37;101452.34;4826058;29;20087;-68
2021/11/07 03:57:57;;;;;;;22.83;6.93;;;13.40;99.90;;;13.55;70.62;101447.00;4825888;29;20061;-67
2021/11/07 04:00:26;;;;;;;22.38;7.15;;;13.40;99.90;;;13.58;70.10;101456.72;4826273;29;20043;-68
2021/11/07 04:02:56;;;;;;;22.33;6.85;;;13.40;99.90;;;13.21;69.75;101400.31;4826099;29;20046;-68
2021/11/07 04:05:25;;;;;;;22.92;6.45;;;13.30;99.90;;;13.56;69.61;101446.13;4826026;29;20054;-68
2021/11/07 04:07:54;;;;;;;17.67;6.00;;;13.30;99.90;;;13.63;69.90;101459.38;4825864;29;20088;-68
2021/11/07 04:10:22;;;;;;;18.48;6.53;;;13.40;99.90;;;13.51;70.47;101429.31;4825841;29;20103;-68
2021/11/07 04:12:52;;;;;;;28.60;6.80;;;13.50;99.90;;;13.58;71.03;101451.41;4825734;29;20101;-68
2021/11/07 04:15:21;;;;;;;23.27;7.25;;;13.40;99.90;;;13.84;71.12;101475.16;4825859;29;20046;-68
2021/11/07 04:17:50;;;;;;;26.25;7.38;;;13.60;99.90;;;13.71;71.32;101457.50;4825973;29;20056;-68
2021/11/07 04:20:20;;;;;;;23.15;7.68;;;13.50;99.90;;;13.70;71.42;101458.41;4825950;29;20111;-68
2021/11/07 04:22:49;;;;;;;23.80;7.03;;;13.60;99.90;;;13.58;71.62;101452.31;4825617;29;20451;-68
2021/11/07 04:25:18;;;;;;;28.40;7.30;;;13.40;99.90;;;13.57;71.38;101460.25;4825570;29;20133;-68
2021/11/07 04:27:47;;;;;;;26.30;7.82;;;13.40;99.90;;;13.36;71.42;101437.38;4825547;29;20100;-68
2021/11/07 04:30:17;;;;;;;29.65;7.53;;;13.40;99.90;;;13.56;71.29;101438.16;4825706;29;20470;-68
2021/11/07 04:32:45;;;;;;;24.80;7.07;;;13.40;99.90;;;13.58;71.67;101446.09;4826029;29;20052;-68
2021/11/07 04:35:13;;;;;;;23.85;7.68;;;13.40;99.90;;;13.58;72.38;101478.88;4825496;29;20485;-68
2021/11/07 04:37:44;;;;;;;27.20;7.32;;;13.40;99.90;;;13.69;72.45;101480.56;4809185;29;20137;-68
2021/11/07 04:40:15;;;;;;;28.33;7.72;;;13.50;99.90;;;13.45;72.17;101439.97;4825718;29;20057;-68
2021/11/07 04:42:46;;;;;;;35.33;7.90;;;13.50;99.90;;;12.66;69.77;101327.13;4825515;29;20051;-68
2021/11/07 04:45:16;;;;;;;26.45;6.97;;;13.30;99.90;;;13.51;69.21;101450.56;4824414;29;20058;-68
2021/11/07 04:47:47;;;;;;;29.02;7.32;;;13.30;99.90;;;13.62;67.47;101452.25;4825869;29;20046;-68
2021/11/07 04:50:19;;;;;;;22.00;6.57;;;13.30;99.90;;;13.58;67.59;101468.25;4825328;29;20508;-68
2021/11/07 04:52:48;;;;;;;24.73;6.55;;;13.40;99.90;;;13.30;67.78;101441.84;4825229;29;20087;-68
2021/11/07 04:55:18;;;;;;;25.57;7.10;;;13.20;99.90;;;13.51;68.02;101468.31;4809036;29;20466;-68
2021/11/07 04:57:46;;;;;;;24.30;6.75;;;13.30;99.90;;;13.55;67.95;101470.91;4825398;29;20065;-68
2021/11/07 05:00:21;;;;;;;24.15;7.30;;;13.30;99.90;;;13.34;68.99;101459.53;4825349;29;20050;-68
2021/11/07 05:02:51;;;;;;;31.90;7.20;;;13.20;99.90;;;13.48;69.65;101455.03;4824931;29;20378;-68
2021/11/07 05:05:20;;;;;;;27.52;7.22;;;13.30;99.90;;;13.28;70.74;101430.34;4825007;29;20501;-68
2021/11/07 05:07:50;;;;;;;26.25;7.45;;;13.30;99.90;;;13.34;70.80;101441.81;4825212;29;20092;-68
2021/11/07 05:10:19;;;;;;;31.38;7.38;;;13.20;99.90;;;13.25;70.78;101452.53;4824953;29;20057;-68
2021/11/07 05:12:47;;;;;;;25.65;6.70;;;13.10;99.90;;;13.10;70.13;101452.63;4825173;29;20054;-68
2021/11/07 05:15:18;;;;;;;26.20;7.07;;;13.00;99.90;;;13.12;69.28;101460.56;4808643;29;20417;-68
2021/11/07 05:17:48;;;;;;;32.13;6.85;;;12.90;99.90;;;12.44;68.91;101357.34;4824833;29;20070;-68
2021/11/07 05:20:17;;;;;;;26.52;6.40;;;12.90;99.90;;;13.04;68.66;101465.03;4824984;29;20490;-68
2021/11/07 05:22:46;;;;;;;24.40;6.72;;;12.90;99.90;;;13.16;67.83;101480.91;4824869;29;20454;-68
2021/11/07 05:25:15;;;;;;;23.33;6.80;;;12.90;99.90;;;12.96;66.49;101469.47;4824946;29;20446;-68
2021/11/07 05:27:44;;;;;;;31.38;6.68;;;12.80;99.90;;;12.93;65.43;101470.34;4808450;29;20050;-67
2021/11/07 05:30:17;;;;;;;26.92;7.55;;;12.80;99.90;;;12.90;65.73;101474.78;4824673;29;20051;-67
2021/11/07 05:32:47;;;;;;;28.17;6.97;;;12.70;99.90;;;12.83;66.64;101471.31;4824893;29;20051;-67
2021/11/07 05:35:19;;;;;;;33.67;7.60;;;12.60;99.90;;;12.84;66.63;101473.06;4824546;29;20051;-67
2021/11/07 05:37:49;;;;;;;23.15;7.03;;;12.60;99.90;;;12.82;66.96;101482.78;4824601;29;20042;-67
2021/11/07 05:40:18;;;;;;;27.92;7.15;;;12.60;99.90;;;12.79;67.43;101474.84;4824501;29;20042;-68
2021/11/07 05:42:48;;;;;;;27.35;6.97;;;12.60;99.90;;;12.68;67.45;101469.56;4824745;29;20133;-68
2021/11/07 05:45:19;;;;;;;30.73;6.68;;;12.50;99.90;;;12.79;67.88;101474.84;4824574;29;20077;-68
2021/11/07 05:47:50;;;;;;;26.92;6.82;;;12.60;99.90;;;12.64;67.94;101473.13;4824826;29;20091;-67
2021/11/07 05:50:21;;;;;;;24.48;6.68;;;12.50;99.90;;;12.64;67.33;101467.81;4824715;29;20136;-68
2021/11/07 05:52:50;;;;;;;28.05;6.93;;;12.40;99.90;;;12.56;67.80;101456.31;4824460;29;20054;-67
2021/11/07 05:55:19;;;;;;;28.10;7.60;;;12.40;99.90;;;12.61;67.95;101466.94;4824542;29;20058;-67
2021/11/07 05:57:47;;;;;;;26.63;7.07;;;12.40;99.90;;;12.57;68.60;101475.78;4824581;29;20125;-67
2021/11/07 06:00:19;;;;;;;29.25;7.22;;;12.40;99.90;;;12.51;68.91;101457.25;4824546;29;20066;-67
2021/11/07 06:02:49;;;;;;;25.35;7.63;;;12.50;99.90;;;12.73;69.20;101487.25;4824246;29;20042;-67
2021/11/07 06:05:19;;;;;;;27.02;7.05;;;12.50;99.90;;;12.34;69.29;101473.22;4824487;29;20058;-67
2021/11/07 06:07:49;;;;;;;31.95;7.95;;;12.40;99.90;;;12.55;68.98;101486.44;4824569;29;20107;-67
2021/11/07 06:10:19;;;;;;;31.00;8.20;;;12.40;99.90;;;12.61;69.07;101489.06;4824442;29;20129;-67
2021/11/07 06:12:47;;;;;;;25.60;7.13;;;12.40;99.90;;;12.35;69.09;101459.03;4824164;29;20497;-67
2021/11/07 06:15:16;;;;;;;23.67;7.15;;;12.30;99.90;;;12.52;69.00;101488.22;4827832;29;20477;-67
2021/11/07 06:17:46;;;;;;;27.52;7.18;;;12.30;99.90;;;12.37;68.27;101477.59;4827673;29;20058;-67
2021/11/07 06:20:14;;;;;;;25.48;6.57;;;12.20;99.90;;;12.54;68.04;101497.91;4827951;29;20039;-68
2021/11/07 06:22:42;;;;;;;26.52;7.53;;;12.40;99.90;;;12.55;68.09;101496.16;4827551;29;20050;-67
2021/11/07 06:25:11;;;;;;;30.23;7.65;;;12.40;99.90;;;12.57;67.75;101483.75;4827834;29;20048;-67
2021/11/07 06:27:40;;;;;;;36.90;7.35;;;12.40;99.90;;;12.51;67.92;101495.28;4827721;29;20058;-68
2021/11/07 06:30:11;;;;;;;30.23;7.47;;;12.30;99.90;;;12.38;67.92;101464.34;4827717;29;20049;-67
2021/11/07 06:32:40;;;;;;;25.15;6.32;;;12.40;99.90;;;12.50;67.49;101484.69;4827472;29;20057;-67
2021/11/07 06:35:12;;;;;;;27.25;7.35;;;12.30;99.90;;;12.46;66.98;101490.88;4811335;29;20054;-68
2021/11/07 06:37:42;;;;;;;21.70;6.35;;;12.30;99.90;;;12.43;67.18;101472.28;4827329;29;20470;-67
2021/11/07 06:40:12;;;;;;;27.97;6.57;;;12.30;99.90;;;12.52;67.31;101491.72;4811272;29;20505;-67
2021/11/07 06:42:42;;;;;;;29.05;6.88;;;12.40;99.90;;;12.55;67.56;101496.16;4827198;29;20046;-67
2021/11/07 06:45:11;;;;;;;27.75;7.13;;;12.30;99.90;;;12.59;67.58;101484.63;4827187;29;20068;-67
2021/11/07 06:47:40;;;;;;;27.33;7.07;;;12.40;99.90;;;12.26;68.69;101452.88;4827567;29;20050;-68
2021/11/07 06:50:12;;;;;;;25.23;6.78;;;12.30;99.90;;;12.64;68.16;101504.06;4810689;29;20141;-67
2021/11/07 06:52:41;;;;;;;29.13;6.90;;;12.40;99.90;;;12.59;68.06;101501.47;4827378;29;20508;-68
2021/11/07 06:55:11;;;;;;;28.55;7.47;;;12.40;99.90;;;12.52;68.32;101504.13;4827135;29;20103;-67
2021/11/07 06:57:41;;;;;;;32.60;6.50;;;12.40;99.90;;;12.59;68.78;101506.75;4827146;29;20054;-68
2021/11/07 07:00:15;;;;;;;27.88;7.38;;;12.40;99.90;;;12.66;68.70;101497.00;4827476;29;20288;-67
2021/11/07 07:02:43;;;;;;;27.85;6.72;;;12.50;99.90;;;12.50;69.13;101466.09;4826787;29;20428;-67
2021/11/07 07:05:16;;;;;;;36.22;8.23;;;12.50;99.90;;;12.69;69.18;101500.56;4827066;29;20074;-67
2021/11/07 07:07:47;;;;;;;29.23;7.03;;;12.50;99.90;;;12.61;69.07;101488.19;4827068;29;20050;-68
2021/11/07 07:10:21;;;;;;;23.23;6.75;;;12.40;99.90;;;12.51;68.62;101473.16;4827131;29;20058;-67
2021/11/07 07:12:55;;;;;;;25.00;6.47;;;12.50;99.90;;;12.74;68.18;101494.34;4826989;29;20046;-67
2021/11/07 07:15:27;;;;;;;24.17;6.30;;;12.50;99.90;;;12.33;68.19;101475.88;4827269;29;20055;-67
2021/11/07 07:18:06;;;;;;;31.95;7.15;;;12.30;99.90;;;12.33;68.75;101484.69;4825700;29;20061;-67
2021/11/07 07:20:53;;;;;;;23.77;7.00;;;12.30;99.90;;;12.50;68.65;101496.16;4826925;29;20054;-67
2021/11/07 07:23:49;;;;;;;27.90;6.80;;;12.40;99.90;;;12.52;69.24;101507.63;4826464;29;20046;-67
2021/11/07 07:26:47;;;;;;;27.48;6.55;;;12.30;99.90;;;12.55;69.66;101509.41;4826365;29;20054;-67
2021/11/07 07:29:29;;;;;;;27.90;6.75;;;12.40;99.90;;;12.56;69.83;101512.06;4826680;29;20077;-67
2021/11/07 07:32:23;;;;;;;31.73;7.38;;;12.30;99.90;;;12.53;69.19;101521.81;4826642;29;20046;-68
2021/11/07 07:34:54;;;;;;;24.42;6.45;;;12.40;99.90;;;12.51;68.65;101507.66;4826743;29;20046;-68
2021/11/07 07:37:24;;;;;;;20.75;6.05;;;12.30;99.90;;;12.51;68.83;101521.81;4826447;29;20074;-67
2021/11/07 07:39:53;;;;;;;24.60;6.00;;;12.30;99.90;;;12.56;68.51;101511.19;4826251;29;20130;-68
2021/11/07 07:42:21;;;;;;;26.52;7.82;;;12.40;99.90;;;12.47;69.53;101506.78;4826144;29;20650;-68
2021/11/07 07:44:51;;;;;;;30.40;6.82;;;12.30;99.90;;;12.54;69.28;101515.63;4826365;29;20141;-68
2021/11/07 07:47:21;;;;;;;29.20;6.68;;;12.30;99.90;;;12.59;69.47;101524.44;4826214;29;20054;-68
2021/11/07 07:49:51;;;;;;;31.45;7.10;;;12.40;99.90;;;12.63;69.34;101504.97;4810066;29;20424;-67
2021/11/07 07:52:23;;;;;;;31.80;6.68;;;12.50;99.90;;;12.67;69.58;101526.22;4826387;29;20061;-68
2021/11/07 07:54:53;;;;;;;25.23;6.65;;;12.50;99.90;;;12.56;69.20;101513.84;4826313;29;20114;-68
2021/11/07 07:57:22;;;;;;;28.17;7.25;;;12.40;99.90;;;12.38;68.82;101485.59;4826088;29;20070;-67
2021/11/07 07:59:50;;;;;;;23.83;6.32;;;12.40;99.90;;;12.48;69.00;101521.84;4825956;29;20489;-67
2021/11/07 08:02:19;;;;;;;23.15;6.45;;;12.30;99.90;;;12.50;68.74;101528.00;4825959;29;20073;-67
2021/11/07 08:04:47;;;;;;;29.23;7.40;;;12.30;99.90;;;12.53;68.84;101532.41;4825804;29;20074;-68
2021/11/07 08:07:16;;;;;;;26.33;6.80;;;12.40;99.90;;;12.46;68.81;101510.34;4825808;29;20066;-68
2021/11/07 08:09:44;;;;;;;35.75;6.93;;;12.40;99.90;;;12.59;68.67;101522.69;4826151;29;20121;-67
2021/11/07 08:12:14;;;;;;;24.73;7.15;;;12.40;99.90;;;12.73;69.16;101535.03;4825608;29;20122;-67
2021/11/07 08:14:43;;;;;;;30.20;6.90;;;12.50;99.90;;;12.80;68.91;101524.38;4825552;29;20070;-68
2021/11/07 08:17:11;;;;;;;26.80;7.03;;;12.60;99.90;;;12.88;69.26;101533.22;4825658;29;20046;-68
2021/11/07 08:19:40;;;;;;;37.45;7.53;;;12.70;99.90;;;12.84;68.14;101528.81;4825629;29;20046;-67
2021/11/07 08:22:09;;;;;;;23.15;6.13;;;12.70;99.90;;;12.72;68.53;101528.84;4825442;29;20052;-67
2021/11/07 08:24:40;;;;;;;24.42;7.60;;;12.60;99.90;;;12.86;69.06;101523.47;4825230;29;20046;-68
2021/11/07 08:27:09;;;;;;;;;;;12.70;99.90;;;12.87;68.94;101515.53;4826018;29;20084;-67
2021/11/07 08:29:40;;;;;;;28.60;6.95;;;12.80;99.90;;;12.84;68.50;101512.88;4825337;29;19924;-67
2021/11/07 08:32:09;;;;;;;31.77;6.82;;;12.80;99.90;;;13.11;68.31;101534.06;4825509;29;20058;-67
2021/11/07 08:34:37;;;;;;;33.55;7.85;;;12.90;99.90;;;12.97;67.98;101529.66;4825615;29;20129;-67
2021/11/07 08:37:07;;;;;;;31.40;7.20;;;12.80;99.90;;;12.81;67.94;101533.25;4824605;29;20042;-68
2021/11/07 08:39:39;;;;;;;27.67;7.95;;;12.70;99.90;;;12.79;67.92;101546.53;4825567;29;20121;-67
2021/11/07 08:42:13;;;;;;;24.42;6.95;;;12.60;99.90;;;12.55;67.53;101504.09;4825302;29;20389;-67
2021/11/07 09:01:43;;;;;;;25.23;6.82;;;12.70;99.90;;;12.26;67.52;101431.66;4808622;29;20487;-65
2021/11/07 09:04:22;;;;;;;27.45;7.38;;;12.60;99.90;;;13.10;67.27;101524.34;4825030;29;20521;-65
2021/11/07 09:07:16;;;;;;;30.45;7.70;;;12.90;99.90;;;13.17;66.94;101541.09;4825280;29;20054;-66
2021/11/07 09:09:46;;;;;;;22.98;7.18;;;13.00;99.90;;;13.02;66.90;101535.81;4824833;29;20047;-68
2021/11/07 09:12:15;;;;;;;32.20;6.90;;;12.90;99.90;;;13.11;67.00;101541.13;4823929;29;20512;-65
2021/11/07 09:14:44;;;;;;;25.77;7.18;;;12.90;99.90;;;13.40;67.11;101553.41;4824629;29;20085;-64
2021/11/07 09:17:15;;;;;;;31.20;7.70;;;13.10;99.90;;;13.67;65.92;101546.16;4824568;29;20490;-67
2021/11/07 09:19:48;;;;;;;28.23;7.30;;;13.40;99.90;;;13.55;66.45;101558.63;4825118;29;20038;-69
2021/11/07 09:22:19;;;;;;;36.30;7.75;;;13.40;99.90;;;13.36;66.83;101551.66;4824964;29;20089;-67
2021/11/07 09:24:51;;;;;;;24.60;7.00;;;13.30;99.90;;;13.23;67.30;101543.75;4808456;29;20103;-68
2021/11/07 09:27:23;;;;;;;30.15;7.63;;;13.10;99.90;;;13.10;67.10;101550.91;4824672;29;20129;-68
2021/11/07 09:30:01;;;;;;;30.08;7.45;;;12.90;99.90;;;13.02;67.06;101552.66;4824443;29;20131;-69
2021/11/07 09:32:46;;;;;;;21.45;7.10;;;12.90;99.90;;;13.04;66.66;101553.56;4824429;29;20046;-68
2021/11/07 09:35:25;;;;;;;32.75;6.45;;;12.80;99.90;;;13.13;66.80;101558.84;4824531;29;20058;-68
2021/11/07 09:37:56;;;;;;;29.23;6.88;;;12.90;99.90;;;13.13;66.56;101548.22;4824633;29;20546;-69
2021/11/07 09:40:27;;;;;;;31.52;6.78;;;12.90;99.90;;;12.97;66.44;101527.88;4808341;29;20386;-68
2021/11/07 09:43:22;;;;;;;24.92;7.00;;;12.90;99.90;;;13.04;66.66;101542.94;4824553;29;20042;-67
2021/11/07 09:48:36;;;;;;;26.92;7.07;;;12.80;99.90;;;12.96;66.88;101543.81;4822211;29;20062;-68
2021/11/07 09:51:15;;;;;;;25.70;7.55;;;12.80;99.90;;;13.04;67.01;101560.66;4823108;29;20107;-67
2021/11/07 09:53:44;;;;;;;24.65;7.22;;;12.80;99.90;;;13.09;66.17;101524.31;4824495;29;20043;-68
2021/11/07 09:56:13;;;;;;;29.55;7.22;;;13.00;99.90;;;13.46;65.08;101553.38;4824138;29;20206;-69
2021/11/07 09:58:43;;;;;;;23.67;6.70;;;13.30;99.90;;;13.55;64.79;101548.00;4824486;29;20149;-70
2021/11/07 10:01:12;;;;;;;28.63;6.63;;;13.40;99.90;;;13.93;65.46;101561.06;4824583;29;20050;-66
2021/11/07 10:03:44;;;;;;;22.95;7.50;;;13.70;99.90;;;13.77;64.42;101555.84;4824474;29;20088;-68
2021/11/07 10:06:28;;;;;;;24.67;6.95;;;13.70;99.90;;;13.66;65.13;101566.56;4824028;29;20069;-65
2021/11/07 10:08:58;;;;;;;23.60;6.30;;;13.50;99.90;;;13.40;65.80;101553.41;4823200;29;20107;-64
2021/11/07 10:11:33;;;;;;;32.45;6.80;;;13.30;99.90;;;13.49;66.64;101571.94;4824122;29;20050;-68
2021/11/07 10:14:13;;;;;;;33.60;7.22;;;13.30;99.90;;;13.62;66.64;101566.56;4823105;29;20054;-64
2021/11/07 10:16:47;;;;;;;30.65;7.72;;;13.40;99.90;;;13.64;66.61;101564.78;4824394;29;20119;-64
2021/11/07 10:19:28;;;;;;;20.58;6.28;;;13.40;99.90;;;13.86;65.56;101572.63;4824052;29;20102;-65
2021/11/07 10:21:59;;;;;;;31.67;7.18;;;13.60;99.90;;;13.84;65.21;101562.91;4823982;29;20042;-65
2021/11/07 10:24:33;;;;;;;26.02;6.30;;;13.70;99.90;;;12.15;64.45;101320.31;4822725;29;20114;-65
2021/11/07 10:27:07;;;;;;;27.40;7.00;;;13.50;99.90;;;13.91;64.83;101553.97;4807550;29;20447;-64
2021/11/07 10:29:41;;;;;;;31.10;7.18;;;13.70;99.90;;;14.11;63.74;101571.56;4823931;29;20054;-64
2021/11/07 10:32:23;;;;;;;29.17;6.93;;;13.90;99.90;;;14.07;64.20;101526.38;4822881;29;20042;-68
2021/11/07 10:35:38;;;;;;;29.23;7.53;;;14.10;99.90;;;14.09;63.28;101556.53;4823881;29;20108;-66
2021/11/07 10:42:09;;;;;;;27.85;6.60;;;13.70;99.90;;;13.97;63.90;101583.19;4823807;29;20053;-68
2021/11/07 10:47:41;;;;;;;29.55;7.03;;;13.60;99.90;;;13.82;62.65;101568.22;4823978;29;20059;-67
2021/11/07 10:53:12;;;;;;;29.63;7.15;;;13.60;99.90;;;14.05;62.81;101568.94;4823981;29;20050;-66
2021/11/07 10:55:45;;;;;;;35.30;7.90;;;13.80;99.90;;;13.96;62.92;101568.13;4823488;29;20061;-64
2021/11/07 10:58:14;;;;;;;34.08;7.28;;;13.90;99.90;;;14.00;62.95;101562.78;4823640;29;20145;-64
2021/11/07 11:00:46;;;;;;;32.30;6.97;;;13.80;99.90;;;13.78;63.05;101544.34;4825890;29;20099;-68